sensor_id;sensor_type;location;lat;lon;timestamp;P1;durP1;ratioP1;P2;durP2;ratioP2
57311;SDS011;43154;50.966;18.316;2022-12-10T00:00:22;117.00;;;44.20;;
57311;SDS011;43154;50.966;18.316;2022-12-10T00:02:47;120.90;;;44.40;;
57311;SDS011;43154;50.966;18.316;2022-12-10T00:05:13;123.40;;;45.50;;
57311;SDS011;43154;50.966;18.316;2022-12-10T00:07:38;111.00;;;41.00;;
57311;SDS011;43154;50.966;18.316;2022-12-10T00:10:04;114.70;;;41.90;;
57311;SDS011;43154;50.966;18.316;2022-12-10T00:12:30;116.30;;;43.40;;
57311;SDS011;43154;50.966;18.316;2022-12-10T00:14:56;113.30;;;43.20;;
57311;SDS011;43154;50.966;18.316;2022-12-10T00:17:21;121.70;;;45.90;;
57311;SDS011;43154;50.966;18.316;2022-12-10T00:19:49;121.40;;;45.00;;
57311;SDS011;43154;50.966;18.316;2022-12-10T00:22:14;118.40;;;42.10;;
57311;SDS011;43154;50.966;18.316;2022-12-10T00:24:40;121.80;;;46.90;;
57311;SDS011;43154;50.966;18.316;2022-12-10T00:27:06;120.60;;;44.50;;
57311;SDS011;43154;50.966;18.316;2022-12-10T00:29:31;128.70;;;44.90;;
57311;SDS011;43154;50.966;18.316;2022-12-10T00:31:57;120.10;;;43.80;;
57311;SDS011;43154;50.966;18.316;2022-12-10T00:34:22;120.20;;;43.60;;
57311;SDS011;43154;50.966;18.316;2022-12-10T00:36:48;130.20;;;45.00;;
57311;SDS011;43154;50.966;18.316;2022-12-10T00:39:15;129.70;;;45.80;;
57311;SDS011;43154;50.966;18.316;2022-12-10T00:41:42;133.60;;;46.20;;
57311;SDS011;43154;50.966;18.316;2022-12-10T00:44:08;126.60;;;43.90;;
57311;SDS011;43154;50.966;18.316;2022-12-10T00:46:34;123.90;;;43.30;;
57311;SDS011;43154;50.966;18.316;2022-12-10T00:49:00;119.50;;;42.40;;
57311;SDS011;43154;50.966;18.316;2022-12-10T00:51:26;123.90;;;42.70;;
57311;SDS011;43154;50.966;18.316;2022-12-10T00:53:53;121.20;;;43.00;;
57311;SDS011;43154;50.966;18.316;2022-12-10T00:56:24;120.60;;;40.30;;
57311;SDS011;43154;50.966;18.316;2022-12-10T00:58:51;117.50;;;42.20;;
57311;SDS011;43154;50.966;18.316;2022-12-10T01:03:51;119.40;;;41.30;;
57311;SDS011;43154;50.966;18.316;2022-12-10T01:08:51;110.80;;;38.10;;
57311;SDS011;43154;50.966;18.316;2022-12-10T01:11:19;122.10;;;40.60;;
57311;SDS011;43154;50.966;18.316;2022-12-10T01:13:46;122.20;;;42.20;;
57311;SDS011;43154;50.966;18.316;2022-12-10T01:16:13;108.40;;;38.90;;
57311;SDS011;43154;50.966;18.316;2022-12-10T01:18:40;122.30;;;41.10;;
57311;SDS011;43154;50.966;18.316;2022-12-10T01:21:07;124.30;;;40.60;;
57311;SDS011;43154;50.966;18.316;2022-12-10T01:23:35;118.70;;;41.10;;
57311;SDS011;43154;50.966;18.316;2022-12-10T01:26:04;120.80;;;39.00;;
57311;SDS011;43154;50.966;18.316;2022-12-10T01:28:32;119.30;;;40.20;;
57311;SDS011;43154;50.966;18.316;2022-12-10T01:31:03;100.70;;;34.70;;
57311;SDS011;43154;50.966;18.316;2022-12-10T01:33:31;111.00;;;37.00;;
57311;SDS011;43154;50.966;18.316;2022-12-10T01:36:01;113.40;;;38.40;;
57311;SDS011;43154;50.966;18.316;2022-12-10T01:38:31;105.10;;;35.30;;
57311;SDS011;43154;50.966;18.316;2022-12-10T01:40:57;121.60;;;38.60;;
57311;SDS011;43154;50.966;18.316;2022-12-10T01:43:23;115.90;;;38.60;;
57311;SDS011;43154;50.966;18.316;2022-12-10T01:45:49;93.20;;;32.50;;
57311;SDS011;43154;50.966;18.316;2022-12-10T01:48:14;105.50;;;34.90;;
57311;SDS011;43154;50.966;18.316;2022-12-10T01:50:40;108.90;;;37.40;;
57311;SDS011;43154;50.966;18.316;2022-12-10T01:53:05;105.40;;;35.10;;
57311;SDS011;43154;50.966;18.316;2022-12-10T01:55:48;106.70;;;35.70;;
57311;SDS011;43154;50.966;18.316;2022-12-10T01:58:18;108.50;;;36.60;;
57311;SDS011;43154;50.966;18.316;2022-12-10T02:12:15;109.40;;;37.80;;
57311;SDS011;43154;50.966;18.316;2022-12-10T02:15:01;105.50;;;35.40;;
57311;SDS011;43154;50.966;18.316;2022-12-10T02:20:14;105.70;;;34.20;;
57311;SDS011;43154;50.966;18.316;2022-12-10T02:23:05;89.40;;;29.50;;
57311;SDS011;43154;50.966;18.316;2022-12-10T02:28:39;110.90;;;36.80;;
57311;SDS011;43154;50.966;18.316;2022-12-10T02:31:07;107.20;;;35.30;;
57311;SDS011;43154;50.966;18.316;2022-12-10T02:33:35;115.40;;;36.70;;
57311;SDS011;43154;50.966;18.316;2022-12-10T02:36:03;118.30;;;35.80;;
57311;SDS011;43154;50.966;18.316;2022-12-10T02:38:32;107.20;;;34.30;;
57311;SDS011;43154;50.966;18.316;2022-12-10T02:41:01;109.20;;;34.80;;
